createdAt,value
2023-05-22T00:01:02.271Z,7.10
2023-05-22T00:06:06.390Z,6.90
2023-05-22T00:11:09.971Z,8.03
2023-05-22T00:16:15.034Z,8.15
2023-05-22T00:21:18.732Z,8.10
2023-05-22T00:26:23.410Z,8.30
2023-05-22T00:31:28.384Z,8.30
2023-05-22T00:36:32.040Z,8.90
2023-05-22T00:41:35.635Z,8.07
2023-05-22T00:46:41.079Z,8.32
2023-05-22T00:51:44.756Z,8.45
2023-05-22T00:56:49.078Z,9.13
2023-05-22T01:01:54.031Z,8.70
2023-05-22T01:06:57.616Z,8.30
2023-05-22T01:12:06.634Z,8.75
2023-05-22T01:17:23.142Z,7.25
2023-05-22T01:22:44.126Z,8.90
2023-05-22T01:28:22.646Z,7.90
2023-05-22T01:33:30.034Z,8.43
2023-05-22T01:38:35.401Z,8.63
2023-05-22T01:43:39.243Z,8.30
2023-05-22T01:48:44.178Z,8.82
2023-05-22T01:53:54.030Z,8.73
2023-05-22T01:59:05.777Z,8.57
2023-05-22T02:04:11.799Z,8.82
2023-05-22T02:09:16.989Z,9.07
2023-05-22T02:14:22.463Z,8.88
2023-05-22T02:19:27.509Z,8.98
2023-05-22T02:24:31.683Z,9.10
2023-05-22T02:29:35.333Z,8.68
2023-05-22T02:34:40.461Z,8.70
2023-05-22T02:39:44.041Z,8.48
2023-05-22T02:44:47.539Z,9.50
2023-05-22T02:49:52.447Z,10.27
2023-05-22T02:54:55.988Z,10.13
2023-05-22T02:59:59.601Z,9.30
2023-05-22T03:05:04.685Z,9.10
2023-05-22T03:10:09.123Z,9.68
2023-05-22T03:15:13.060Z,8.30
2023-05-22T03:20:18.066Z,8.67
2023-05-22T03:25:22.138Z,8.70
2023-05-22T03:30:25.864Z,7.40
2023-05-22T03:35:30.792Z,8.77
2023-05-22T03:40:34.308Z,9.05
2023-05-22T03:45:37.947Z,9.57
2023-05-22T03:50:42.971Z,10.05
2023-05-22T03:55:46.601Z,9.90
2023-05-22T04:00:50.098Z,9.65
2023-05-22T04:05:54.986Z,9.60
2023-05-22T04:10:58.738Z,8.85
2023-05-22T04:16:02.442Z,9.03
2023-05-22T04:21:09.937Z,8.00
2023-05-22T04:26:14.020Z,7.93
2023-05-22T04:31:18.026Z,7.63
2023-05-22T04:36:26.222Z,8.93
2023-05-22T04:41:29.785Z,8.20
2023-05-22T04:46:34.621Z,8.53
2023-05-22T04:51:39.544Z,9.18
2023-05-22T04:56:43.068Z,9.38
2023-05-22T05:01:47.998Z,10.27
2023-05-22T05:06:54.090Z,11.38
2023-05-22T05:11:58.400Z,11.70
2023-05-22T05:17:02.667Z,11.88
2023-05-22T05:22:08.072Z,12.60
2023-05-22T05:27:11.739Z,13.05
2023-05-22T05:32:15.281Z,13.70
2023-05-22T05:37:20.229Z,12.57
2023-05-22T05:42:23.722Z,14.07
2023-05-22T05:47:30.860Z,14.85
2023-05-22T05:52:35.953Z,15.40
2023-05-22T05:57:39.596Z,15.88
2023-05-22T06:02:43.779Z,16.57
2023-05-22T06:07:49.836Z,15.93
2023-05-22T06:12:53.416Z,17.17
2023-05-22T06:17:57.142Z,15.27
2023-05-22T06:23:02.070Z,18.53
2023-05-22T06:28:06.206Z,19.08
2023-05-22T06:33:10.282Z,19.85
2023-05-22T06:38:15.361Z,20.90
2023-05-22T06:43:19.994Z,21.55
2023-05-22T06:48:23.552Z,20.52
2023-05-22T06:53:28.523Z,21.35
2023-05-22T06:58:32.016Z,21.60
2023-05-22T07:03:35.642Z,21.40
2023-05-22T07:08:40.602Z,23.97
2023-05-22T07:13:44.177Z,22.05
2023-05-22T07:18:47.760Z,20.92
2023-05-22T07:23:52.802Z,23.97
2023-05-22T07:28:56.589Z,21.95
2023-05-22T07:34:00.138Z,20.27
2023-05-22T07:39:06.978Z,18.73
2023-05-22T07:44:10.640Z,17.23
2023-05-22T07:49:17.492Z,19.20
2023-05-22T07:54:22.383Z,19.50
2023-05-22T07:59:26.140Z,19.05
2023-05-22T08:04:30.167Z,17.47
2023-05-22T08:09:35.716Z,17.63
2023-05-22T08:14:39.217Z,17.75
2023-05-22T08:19:42.867Z,16.50
2023-05-22T08:24:47.908Z,17.60
2023-05-22T08:29:52.342Z,17.17
2023-05-22T08:34:56.132Z,17.00
2023-05-22T08:40:01.129Z,15.53
2023-05-22T08:45:07.292Z,16.20
2023-05-22T08:50:12.634Z,17.48
2023-05-22T08:55:19.675Z,16.45
2023-05-22T09:00:24.563Z,18.65
2023-05-22T09:05:28.099Z,16.52
2023-05-22T09:10:33.009Z,17.98
2023-05-22T09:15:37.672Z,17.15
2023-05-22T09:20:41.664Z,12.73
2023-05-22T09:25:47.051Z,10.73
2023-05-22T09:30:51.198Z,9.45
2023-05-22T09:35:55.505Z,7.68
2023-05-22T09:41:00.802Z,8.00
2023-05-22T09:46:05.437Z,7.10
2023-05-22T09:51:10.449Z,7.70
2023-05-22T09:56:27.111Z,6.13
2023-05-22T10:01:36.441Z,6.90
2023-05-22T10:06:40.923Z,6.07
2023-05-22T10:11:46.514Z,5.93
2023-05-22T10:16:50.201Z,5.50
2023-05-22T10:21:55.560Z,5.50
2023-05-22T10:27:01.005Z,5.53
2023-05-22T10:32:14.281Z,5.25
2023-05-22T10:37:46.481Z,4.95
2023-05-22T10:42:51.915Z,4.90
2023-05-22T10:48:04.551Z,4.90
2023-05-22T10:53:22.564Z,4.10
2023-05-22T10:58:31.624Z,4.10
2023-05-22T11:03:52.835Z,3.88
2023-05-22T11:08:57.796Z,3.85
2023-05-22T11:14:05.580Z,4.70
2023-05-22T11:19:22.583Z,4.20
2023-05-22T11:24:27.364Z,3.70
2023-05-22T11:29:32.589Z,3.78
2023-05-22T11:34:37.232Z,3.90
2023-05-22T11:39:40.801Z,4.50
2023-05-22T11:44:45.956Z,4.50
2023-05-22T11:49:49.486Z,4.55
2023-05-22T11:54:53.998Z,4.60
2023-05-22T11:59:59.523Z,4.63
2023-05-22T12:05:03.103Z,5.15
2023-05-22T12:10:08.599Z,5.50
2023-05-22T12:15:14.506Z,5.00
2023-05-22T12:20:18.202Z,5.00
2023-05-22T12:25:24.822Z,5.10
2023-05-22T12:30:29.960Z,5.22
2023-05-22T12:35:33.552Z,6.50
2023-05-22T12:40:37.114Z,5.70
2023-05-22T12:45:42.551Z,5.60
2023-05-22T12:50:47.474Z,5.68
2023-05-22T12:55:51.003Z,6.45
2023-05-22T13:00:56.332Z,6.28
2023-05-22T13:06:00.418Z,6.05
2023-05-22T13:11:04.035Z,6.53
2023-05-22T13:16:08.960Z,6.05
2023-05-22T13:21:13.675Z,5.60
2023-05-22T13:26:17.197Z,6.18
2023-05-22T13:31:22.161Z,6.30
2023-05-22T13:36:25.708Z,6.40
2023-05-22T13:41:29.319Z,6.32
2023-05-22T13:46:34.407Z,7.03
2023-05-22T13:51:38.133Z,6.63
2023-05-22T13:56:41.960Z,6.53
2023-05-22T14:01:46.931Z,6.57
2023-05-22T14:06:50.501Z,6.90
2023-05-22T14:11:54.180Z,6.55
2023-05-22T14:16:59.121Z,6.95
2023-05-22T14:22:02.809Z,7.40
2023-05-22T14:27:06.814Z,7.03
2023-05-22T14:32:11.845Z,6.75
2023-05-22T14:37:15.419Z,7.20
2023-05-22T14:42:18.946Z,7.13
2023-05-22T14:47:23.876Z,7.25
2023-05-22T14:52:27.366Z,7.18
2023-05-22T14:57:30.897Z,6.88
2023-05-22T15:02:35.882Z,6.63
2023-05-22T15:07:44.894Z,6.88
2023-05-22T15:12:49.491Z,7.63
2023-05-22T15:17:54.436Z,6.93
2023-05-22T15:22:58.752Z,6.90
2023-05-22T15:33:07.701Z,4.73
2023-05-22T15:38:12.661Z,3.95
2023-05-22T15:43:16.199Z,4.35
2023-05-22T15:48:21.136Z,3.50
2023-05-22T15:53:24.709Z,4.32
2023-05-22T15:58:28.936Z,3.45
2023-05-22T16:13:40.559Z,3.75
2023-05-22T16:18:45.553Z,4.00
2023-05-22T16:23:49.085Z,4.40
2023-05-22T16:28:52.738Z,4.50
2023-05-22T16:33:57.824Z,5.30
2023-05-22T16:39:01.398Z,4.45
2023-05-22T16:44:05.090Z,4.77
2023-05-22T16:49:09.994Z,5.00
2023-05-22T16:54:13.759Z,4.88
2023-05-22T16:59:17.561Z,5.07
2023-05-22T17:04:22.454Z,4.78
2023-05-22T17:09:27.715Z,4.78
2023-05-22T17:14:33.273Z,4.63
2023-05-22T17:19:38.905Z,5.25
2023-05-22T17:24:42.662Z,4.70
2023-05-22T17:29:46.198Z,4.90
2023-05-22T17:34:51.248Z,5.10
2023-05-22T17:39:55.150Z,5.10
2023-05-22T17:44:58.755Z,5.53
2023-05-22T17:50:03.872Z,5.70
2023-05-22T17:55:08.642Z,5.68
2023-05-22T18:00:13.826Z,6.43
2023-05-22T18:05:19.368Z,5.88
2023-05-22T18:10:25.811Z,6.57
2023-05-22T18:15:29.760Z,6.10
2023-05-22T18:20:35.300Z,6.90
2023-05-22T18:25:39.286Z,6.38
2023-05-22T18:30:44.782Z,6.68
2023-05-22T18:35:51.124Z,6.45
2023-05-22T18:40:56.858Z,6.43
2023-05-22T18:46:03.645Z,6.57
2023-05-22T18:51:09.508Z,7.13
2023-05-22T18:56:14.032Z,6.85
2023-05-22T19:01:18.438Z,7.40
2023-05-22T19:06:23.864Z,6.90
2023-05-22T19:11:27.654Z,7.50
2023-05-22T19:16:31.931Z,6.67
2023-05-22T19:21:37.876Z,6.40
2023-05-22T19:26:42.230Z,6.82
2023-05-22T19:31:46.482Z,8.15
2023-05-22T19:36:57.950Z,8.00
2023-05-22T19:42:03.692Z,7.93
2023-05-22T19:47:10.117Z,7.70
2023-05-22T19:52:16.249Z,7.10
2023-05-22T19:57:20.974Z,7.82
2023-05-22T20:07:29.741Z,6.55
2023-05-22T20:12:33.294Z,7.32
2023-05-22T20:17:37.616Z,7.38
2023-05-22T20:22:42.550Z,6.95
2023-05-22T20:27:46.171Z,6.78
2023-05-22T20:32:49.863Z,6.40
2023-05-22T20:37:55.242Z,6.90
2023-05-22T20:42:58.815Z,7.13
2023-05-22T20:48:02.397Z,7.72
2023-05-22T20:53:08.615Z,7.47
2023-05-22T20:58:12.188Z,7.18
2023-05-22T21:03:16.135Z,6.22
2023-05-22T21:08:22.265Z,6.77
2023-05-22T21:13:25.923Z,7.38
2023-05-22T21:18:29.556Z,7.20
2023-05-22T21:23:34.733Z,7.80
2023-05-22T21:28:38.389Z,7.65
2023-05-22T21:33:41.953Z,7.18
2023-05-22T21:38:47.203Z,7.85
2023-05-22T21:43:50.861Z,7.30
2023-05-22T21:48:54.628Z,7.13
2023-05-22T21:53:59.858Z,7.40
2023-05-22T21:59:03.572Z,7.35
2023-05-22T22:04:07.232Z,6.60
2023-05-22T22:09:12.395Z,7.00
2023-05-22T22:14:15.986Z,6.20
2023-05-22T22:19:19.501Z,6.55
2023-05-22T22:24:24.621Z,5.72
2023-05-22T22:29:28.244Z,6.40
2023-05-22T22:34:31.814Z,5.38
2023-05-22T22:39:36.849Z,5.47
2023-05-22T22:44:40.372Z,5.78
2023-05-22T22:49:43.892Z,6.00
2023-05-22T22:54:49.167Z,6.07
2023-05-22T22:59:52.926Z,5.85
2023-05-22T23:04:56.617Z,6.10
2023-05-22T23:10:01.689Z,5.37
2023-05-22T23:15:05.918Z,6.07
2023-05-22T23:20:11.835Z,6.95
2023-05-22T23:25:16.828Z,6.60
2023-05-22T23:30:20.609Z,6.00
2023-05-22T23:35:24.174Z,6.13
2023-05-22T23:40:29.151Z,6.70
2023-05-22T23:45:32.686Z,6.70
2023-05-22T23:50:36.459Z,6.40
2023-05-22T23:55:41.869Z,7.30
